createdAt,value
2017-10-11T00:02:02.935Z,6.20
2017-10-11T00:04:31.267Z,6.93
2017-10-11T00:06:58.789Z,7.00
2017-10-11T00:09:26.356Z,6.33
2017-10-11T00:11:53.876Z,6.27
2017-10-11T00:14:21.379Z,5.63
2017-10-11T00:16:48.916Z,5.70
2017-10-11T00:19:17.225Z,6.50
2017-10-11T00:21:45.044Z,6.03
2017-10-11T00:24:12.553Z,5.80
2017-10-11T00:26:40.083Z,5.90
2017-10-11T00:29:08.425Z,5.60
2017-10-11T00:31:35.967Z,5.57
2017-10-11T00:34:03.549Z,6.10
2017-10-11T00:36:31.072Z,6.30
2017-10-11T00:38:58.582Z,6.33
2017-10-11T00:41:26.913Z,6.70
2017-10-11T00:43:54.428Z,6.67
2017-10-11T00:46:22.764Z,6.97
2017-10-11T00:48:50.344Z,5.90
2017-10-11T00:51:17.864Z,6.77
2017-10-11T00:56:36.012Z,5.90
2017-10-11T00:59:03.818Z,6.80
2017-10-11T01:01:31.342Z,6.20
2017-10-11T01:03:58.875Z,6.30
2017-10-11T01:06:27.193Z,5.63
2017-10-11T01:08:54.720Z,6.53
2017-10-11T01:11:23.356Z,5.30
2017-10-11T01:13:50.865Z,5.70
2017-10-11T01:16:19.179Z,5.53
2017-10-11T01:18:46.725Z,6.57
2017-10-11T01:21:14.241Z,5.17
2017-10-11T01:23:42.057Z,5.07
2017-10-11T01:26:09.592Z,5.03
2017-10-11T01:28:37.096Z,5.30
2017-10-11T01:31:04.750Z,5.20
2017-10-11T01:33:32.259Z,5.60
2017-10-11T01:36:00.881Z,5.10
2017-10-11T01:38:28.399Z,4.80
2017-10-11T01:40:55.921Z,5.40
2017-10-11T01:43:23.468Z,4.90
2017-10-11T01:45:50.983Z,4.90
2017-10-11T01:48:18.803Z,4.30
2017-10-11T01:50:46.336Z,4.30
2017-10-11T01:53:13.834Z,4.73
2017-10-11T01:55:41.917Z,4.70
2017-10-11T01:58:09.423Z,3.87
2017-10-11T02:00:37.255Z,4.17
2017-10-11T02:03:04.769Z,4.20
2017-10-11T02:05:32.300Z,3.80
2017-10-11T02:08:00.609Z,4.37
2017-10-11T02:10:28.140Z,4.73
2017-10-11T02:12:56.725Z,5.57
2017-10-11T02:15:25.009Z,4.13
2017-10-11T02:17:52.546Z,4.70
2017-10-11T02:20:20.107Z,4.00
2017-10-11T02:22:47.934Z,4.27
2017-10-11T02:25:15.786Z,3.77
2017-10-11T02:27:43.305Z,3.80
2017-10-11T02:30:10.827Z,4.07
2017-10-11T02:32:38.364Z,4.20
2017-10-11T02:35:05.877Z,3.30
2017-10-11T02:37:33.699Z,3.83
2017-10-11T02:40:01.214Z,3.83
2017-10-11T02:42:29.516Z,4.27
2017-10-11T02:44:57.075Z,3.70
2017-10-11T02:47:24.654Z,4.17
2017-10-11T02:49:52.215Z,4.10
2017-10-11T02:52:19.736Z,4.00
2017-10-11T02:54:48.031Z,3.50
2017-10-11T02:57:15.572Z,4.60
2017-10-11T02:59:43.872Z,4.20
2017-10-11T03:02:11.672Z,4.00
2017-10-11T03:04:39.188Z,3.53
2017-10-11T03:07:07.494Z,4.00
2017-10-11T03:09:35.043Z,4.10
2017-10-11T03:12:02.580Z,4.20
2017-10-11T03:14:31.157Z,5.00
2017-10-11T03:16:59.437Z,3.80
2017-10-11T03:19:27.715Z,4.17
2017-10-11T03:21:56.101Z,4.17
2017-10-11T03:24:24.403Z,3.90
2017-10-11T03:26:52.271Z,4.20
2017-10-11T03:29:19.849Z,4.77
2017-10-11T03:31:47.364Z,4.13
2017-10-11T03:34:15.668Z,3.97
2017-10-11T03:36:43.187Z,4.63
2017-10-11T03:39:11.108Z,4.13
2017-10-11T03:41:38.657Z,3.87
2017-10-11T03:44:06.158Z,4.10
2017-10-11T03:46:33.706Z,3.67
2017-10-11T03:49:01.211Z,4.23
2017-10-11T03:51:29.103Z,3.63
2017-10-11T03:53:56.618Z,4.50
2017-10-11T03:56:24.124Z,3.80
2017-10-11T03:58:51.672Z,4.40
2017-10-11T04:01:19.950Z,4.40
2017-10-11T04:03:48.556Z,4.30
2017-10-11T04:06:16.068Z,4.43
2017-10-11T04:08:43.576Z,4.70
2017-10-11T04:11:11.122Z,4.40
2017-10-11T04:13:38.638Z,4.97
2017-10-11T04:16:06.220Z,5.50
2017-10-11T04:18:34.508Z,5.00
2017-10-11T04:21:02.033Z,5.67
2017-10-11T04:23:29.836Z,4.77
2017-10-11T04:25:58.129Z,5.40
2017-10-11T04:28:26.011Z,4.80
2017-10-11T04:30:53.598Z,4.80
2017-10-11T04:33:21.148Z,3.93
2017-10-11T04:35:48.688Z,3.50
2017-10-11T04:38:16.229Z,3.97
2017-10-11T04:40:43.784Z,4.77
2017-10-11T04:43:11.307Z,4.37
2017-10-11T04:45:38.871Z,3.50
2017-10-11T04:48:06.410Z,3.63
2017-10-11T04:50:33.930Z,3.80
2017-10-11T04:53:01.499Z,4.83
2017-10-11T04:55:29.024Z,4.30
2017-10-11T04:57:56.539Z,4.67
2017-10-11T05:00:24.085Z,4.30
2017-10-11T05:02:51.614Z,4.20
2017-10-11T05:05:19.930Z,3.80
2017-10-11T05:07:47.450Z,4.27
2017-10-11T05:10:15.740Z,3.53
2017-10-11T05:12:44.051Z,4.40
2017-10-11T05:15:11.574Z,3.97
2017-10-11T05:17:40.193Z,4.30
2017-10-11T05:20:07.702Z,3.50
2017-10-11T05:22:35.234Z,4.17
2017-10-11T05:25:02.777Z,3.70
2017-10-11T05:27:30.286Z,4.40
2017-10-11T05:29:58.877Z,3.57
2017-10-11T05:32:26.430Z,4.07
2017-10-11T05:34:53.944Z,3.97
2017-10-11T05:37:21.492Z,4.23
2017-10-11T05:39:49.030Z,4.00
2017-10-11T05:42:16.916Z,4.07
2017-10-11T05:44:44.432Z,3.53
2017-10-11T05:47:11.956Z,4.00
2017-10-11T05:49:39.500Z,4.20
2017-10-11T05:52:07.024Z,5.30
2017-10-11T05:54:35.641Z,3.57
2017-10-11T05:57:03.170Z,5.93
2017-10-11T05:59:31.453Z,4.50
2017-10-11T06:01:59.777Z,5.77
2017-10-11T06:04:28.047Z,4.30
2017-10-11T06:06:55.619Z,4.90
2017-10-11T06:09:23.119Z,3.63
2017-10-11T06:11:51.420Z,4.37
2017-10-11T06:14:18.980Z,4.73
2017-10-11T06:16:46.495Z,4.90
2017-10-11T06:19:14.074Z,4.73
2017-10-11T06:21:41.595Z,5.90
2017-10-11T06:24:09.111Z,6.00
2017-10-11T06:26:37.405Z,4.40
2017-10-11T06:29:04.923Z,5.20
2017-10-11T06:31:32.526Z,4.70
2017-10-11T06:34:00.040Z,5.03
2017-10-11T06:36:27.562Z,5.10
2017-10-11T06:38:55.099Z,5.80
2017-10-11T06:41:22.611Z,5.67
2017-10-11T06:43:50.163Z,5.03
2017-10-11T06:46:17.676Z,5.30
2017-10-11T06:48:45.219Z,5.97
2017-10-11T06:51:13.534Z,5.33
2017-10-11T06:53:41.081Z,5.43
2017-10-11T06:56:08.903Z,5.17
2017-10-11T06:58:36.494Z,5.20
2017-10-11T07:01:04.007Z,5.63
2017-10-11T07:03:31.572Z,5.63
2017-10-11T07:05:59.085Z,5.57
2017-10-11T07:08:26.648Z,5.13
2017-10-11T07:10:54.176Z,5.13
2017-10-11T07:13:22.518Z,4.80
2017-10-11T07:15:50.065Z,5.60
2017-10-11T07:18:17.588Z,5.33
2017-10-11T07:20:46.176Z,4.63
2017-10-11T07:23:14.470Z,5.17
2017-10-11T07:25:41.986Z,4.90
2017-10-11T07:28:09.558Z,4.80
2017-10-11T07:30:37.076Z,6.10
2017-10-11T07:33:04.651Z,5.47
2017-10-11T07:35:32.169Z,5.20
2017-10-11T07:37:59.734Z,5.20
2017-10-11T07:40:27.291Z,5.47
2017-10-11T07:42:54.799Z,5.20
2017-10-11T07:45:22.731Z,5.30
2017-10-11T07:47:50.288Z,4.80
2017-10-11T07:50:17.805Z,4.87
2017-10-11T07:52:46.008Z,5.20
2017-10-11T07:55:14.296Z,4.50
2017-10-11T08:00:26.796Z,4.83
2017-10-11T08:02:55.141Z,4.70
2017-10-11T08:05:22.659Z,4.20
2017-10-11T08:07:50.171Z,5.00
2017-10-11T08:10:17.729Z,4.30
2017-10-11T08:12:45.252Z,4.10
2017-10-11T08:15:12.827Z,4.07
2017-10-11T08:17:43.947Z,4.37
2017-10-11T08:20:11.470Z,4.20
2017-10-11T08:22:38.998Z,4.27
2017-10-11T08:25:06.557Z,4.83
2017-10-11T08:27:34.115Z,4.10
2017-10-11T08:30:01.648Z,3.90
2017-10-11T08:32:32.331Z,4.30
2017-10-11T08:34:59.892Z,4.70
2017-10-11T08:37:27.445Z,4.70
2017-10-11T08:39:55.038Z,3.80
2017-10-11T08:42:23.346Z,4.00
2017-10-11T08:44:51.062Z,4.20
2017-10-11T08:47:19.587Z,4.30
2017-10-11T08:49:47.172Z,6.17
2017-10-11T08:52:14.741Z,5.30
2017-10-11T08:54:42.257Z,4.23
2017-10-11T08:57:10.539Z,5.10
2017-10-11T08:59:38.080Z,4.80
2017-10-11T09:02:05.640Z,4.40
2017-10-11T09:04:33.193Z,4.20
2017-10-11T09:07:01.536Z,4.27
2017-10-11T09:09:29.821Z,4.03
2017-10-11T09:11:57.397Z,4.73
2017-10-11T09:14:24.976Z,4.60
2017-10-11T09:16:52.792Z,4.50
2017-10-11T09:19:20.336Z,4.17
2017-10-11T09:21:47.909Z,4.57
2017-10-11T09:24:15.452Z,4.77
2017-10-11T09:26:42.963Z,4.87
2017-10-11T09:29:10.801Z,4.77
2017-10-11T09:31:38.323Z,4.70
2017-10-11T09:34:06.596Z,4.40
2017-10-11T09:36:34.900Z,4.30
2017-10-11T09:39:02.433Z,4.70
2017-10-11T09:41:30.800Z,4.43
2017-10-11T09:43:58.319Z,4.10
2017-10-11T09:46:25.835Z,3.93
2017-10-11T09:48:54.168Z,4.20
2017-10-11T09:51:21.720Z,4.87
2017-10-11T09:53:49.276Z,4.47
2017-10-11T09:56:16.792Z,4.70
2017-10-11T09:58:45.070Z,4.20
2017-10-11T10:01:13.382Z,4.50
2017-10-11T10:03:41.010Z,3.27
2017-10-11T10:06:09.628Z,3.47
2017-10-11T10:08:37.139Z,3.40
2017-10-11T10:11:04.849Z,3.33
2017-10-11T10:13:32.390Z,3.90
2017-10-11T10:16:00.708Z,4.93
2017-10-11T10:18:28.275Z,3.73
2017-10-11T10:20:55.791Z,3.83
2017-10-11T10:23:24.101Z,3.00
2017-10-11T10:25:51.663Z,3.00
2017-10-11T10:28:19.223Z,3.70
2017-10-11T10:30:46.767Z,3.30
2017-10-11T10:33:14.280Z,3.23
2017-10-11T10:35:41.799Z,3.33
2017-10-11T10:38:09.364Z,3.40
2017-10-11T10:40:36.875Z,3.30
2017-10-11T10:43:04.698Z,3.00
2017-10-11T10:45:32.223Z,3.33
2017-10-11T10:48:00.515Z,2.93
2017-10-11T10:50:28.051Z,2.83
2017-10-11T10:52:56.334Z,3.20
2017-10-11T10:55:24.661Z,3.50
2017-10-11T10:57:52.184Z,3.57
2017-10-11T11:00:19.712Z,3.13
2017-10-11T11:02:48.111Z,3.03
2017-10-11T11:05:16.391Z,3.20
2017-10-11T11:07:44.984Z,3.80
2017-10-11T11:10:12.497Z,3.80
2017-10-11T11:12:40.026Z,3.50
2017-10-11T11:15:07.644Z,3.33
2017-10-11T11:17:35.938Z,2.93
2017-10-11T11:20:04.273Z,3.30
2017-10-11T11:22:31.791Z,3.93
2017-10-11T11:24:59.318Z,3.77
2017-10-11T11:27:27.632Z,3.70
2017-10-11T11:29:55.160Z,4.40
2017-10-11T11:32:23.746Z,3.67
2017-10-11T11:34:52.036Z,3.23
2017-10-11T11:37:20.321Z,3.47
2017-10-11T11:39:47.865Z,3.43
2017-10-11T11:42:16.168Z,3.60
2017-10-11T11:44:43.723Z,3.40
2017-10-11T11:47:11.243Z,4.20
2017-10-11T11:49:38.765Z,3.20
2017-10-11T11:52:06.328Z,4.10
2017-10-11T11:54:33.850Z,3.50
2017-10-11T11:57:02.166Z,3.20
2017-10-11T11:59:29.699Z,3.67
2017-10-11T12:01:57.230Z,3.33
2017-10-11T12:04:24.767Z,3.30
2017-10-11T12:06:52.297Z,3.90
2017-10-11T12:09:19.847Z,4.07
2017-10-11T12:11:47.381Z,3.33
2017-10-11T12:14:15.662Z,2.97
2017-10-11T12:16:43.984Z,2.73
2017-10-11T12:19:12.236Z,2.80
2017-10-11T12:21:40.068Z,3.23
2017-10-11T12:24:08.397Z,3.10
2017-10-11T12:26:35.906Z,2.50
2017-10-11T12:29:03.457Z,2.90
2017-10-11T12:31:30.998Z,3.30
2017-10-11T12:33:58.570Z,3.03
2017-10-11T12:36:26.117Z,2.63
2017-10-11T12:38:53.626Z,2.90
2017-10-11T12:41:21.191Z,2.93
2017-10-11T12:43:48.717Z,3.43
2017-10-11T12:46:16.319Z,3.27
2017-10-11T12:48:43.834Z,3.10
2017-10-11T12:51:12.156Z,3.20
2017-10-11T12:53:39.700Z,2.97
2017-10-11T12:56:07.998Z,3.17
2017-10-11T12:58:38.295Z,2.77
2017-10-11T13:01:07.309Z,2.70
2017-10-11T13:03:36.263Z,2.73
2017-10-11T13:06:04.930Z,3.23
2017-10-11T13:08:33.368Z,2.80
2017-10-11T13:11:02.686Z,3.03
2017-10-11T13:13:30.741Z,2.60
2017-10-11T13:15:59.243Z,2.33
2017-10-11T13:18:29.039Z,2.40
2017-10-11T13:20:57.553Z,2.70
2017-10-11T13:23:27.419Z,2.73
2017-10-11T13:25:55.130Z,2.60
2017-10-11T13:28:23.962Z,2.67
2017-10-11T13:30:51.563Z,3.03
2017-10-11T13:33:21.238Z,2.60
2017-10-11T13:35:48.885Z,3.00
2017-10-11T13:38:16.526Z,2.80
2017-10-11T13:40:44.475Z,2.37
2017-10-11T13:43:12.839Z,3.13
2017-10-11T13:45:41.926Z,2.50
2017-10-11T13:48:09.712Z,2.97
2017-10-11T13:50:38.049Z,2.90
2017-10-11T13:53:06.462Z,2.90
2017-10-11T13:55:34.162Z,3.17
2017-10-11T13:58:02.508Z,3.07
2017-10-11T14:00:30.219Z,3.13
2017-10-11T14:02:57.858Z,3.50
2017-10-11T14:05:25.537Z,3.00
2017-10-11T14:07:53.115Z,3.30
2017-10-11T14:10:20.734Z,3.10
2017-10-11T14:12:48.461Z,2.77
2017-10-11T14:15:16.021Z,3.13
2017-10-11T14:17:43.730Z,3.30
2017-10-11T14:20:11.414Z,3.40
2017-10-11T14:22:39.076Z,3.13
2017-10-11T14:25:06.640Z,2.90
2017-10-11T14:27:34.189Z,3.40
2017-10-11T14:30:01.902Z,3.43
2017-10-11T14:32:29.479Z,3.67
2017-10-11T14:34:58.534Z,3.40
2017-10-11T14:37:27.524Z,3.30
2017-10-11T14:39:56.909Z,3.17
2017-10-11T14:42:24.468Z,2.70
2017-10-11T14:44:52.918Z,2.53
2017-10-11T14:47:20.451Z,2.83
2017-10-11T14:49:48.023Z,3.03
2017-10-11T14:52:16.322Z,3.20
2017-10-11T14:54:43.864Z,3.70
2017-10-11T14:57:12.247Z,3.60
2017-10-11T14:59:40.602Z,2.90
2017-10-11T15:02:08.124Z,3.27
2017-10-11T15:04:35.652Z,3.90
2017-10-11T15:07:03.984Z,3.60
2017-10-11T15:09:31.513Z,4.10
2017-10-11T15:11:59.145Z,3.87
2017-10-11T15:14:26.842Z,4.10
2017-10-11T15:16:54.439Z,4.00
2017-10-11T15:19:22.031Z,4.40
2017-10-11T15:21:50.406Z,4.87
2017-10-11T15:24:18.787Z,4.20
2017-10-11T15:26:47.138Z,4.83
2017-10-11T15:29:14.810Z,4.33
2017-10-11T15:31:42.398Z,3.77
2017-10-11T15:34:10.015Z,3.93
2017-10-11T15:36:37.664Z,3.77
2017-10-11T15:39:05.250Z,4.00
2017-10-11T15:41:32.823Z,3.90
2017-10-11T15:44:00.446Z,4.47
2017-10-11T15:46:28.263Z,4.70
2017-10-11T15:48:57.366Z,4.37
2017-10-11T15:51:25.827Z,5.00
2017-10-11T15:53:53.360Z,4.90
2017-10-11T15:56:21.182Z,4.00
2017-10-11T15:58:49.536Z,7.03
2017-10-11T16:01:17.524Z,4.13
2017-10-11T16:03:45.920Z,3.27
2017-10-11T16:06:13.446Z,3.63
2017-10-11T16:08:41.929Z,13.00
2017-10-11T16:11:09.544Z,6.57
2017-10-11T16:13:37.239Z,4.50
2017-10-11T16:16:04.879Z,4.10
2017-10-11T16:18:32.476Z,4.40
2017-10-11T16:21:00.878Z,3.60
2017-10-11T16:23:29.344Z,4.70
2017-10-11T16:25:56.995Z,4.50
2017-10-11T16:28:24.734Z,4.83
2017-10-11T16:30:53.592Z,5.27
2017-10-11T16:33:22.727Z,4.03
2017-10-11T16:35:51.801Z,3.93
2017-10-11T16:38:21.099Z,3.83
2017-10-11T16:40:50.342Z,4.10
2017-10-11T16:43:19.184Z,4.20
2017-10-11T16:45:48.498Z,3.83
2017-10-11T16:48:17.992Z,5.70
2017-10-11T16:50:45.871Z,6.07
2017-10-11T16:53:13.395Z,5.10
2017-10-11T16:55:41.688Z,4.67
2017-10-11T16:58:09.261Z,4.43
2017-10-11T17:00:36.960Z,4.70
2017-10-11T17:03:04.624Z,5.00
2017-10-11T17:05:32.178Z,4.47
2017-10-11T17:08:00.603Z,4.80
2017-10-11T17:10:29.157Z,3.97
2017-10-11T17:12:56.739Z,4.30
2017-10-11T17:15:24.502Z,4.17
2017-10-11T17:17:52.085Z,4.40
2017-10-11T17:20:19.695Z,4.37
2017-10-11T17:22:47.311Z,4.90
2017-10-11T17:25:16.333Z,5.07
2017-10-11T17:27:47.544Z,4.30
2017-10-11T17:30:15.857Z,4.23
2017-10-11T17:32:44.602Z,5.10
2017-10-11T17:35:13.279Z,5.07
2017-10-11T17:37:44.056Z,4.63
2017-10-11T17:40:13.873Z,7.17
2017-10-11T17:42:41.713Z,5.03
2017-10-11T17:45:09.463Z,5.70
2017-10-11T17:47:37.333Z,5.80
2017-10-11T17:50:04.976Z,4.87
2017-10-11T17:52:32.741Z,4.00
2017-10-11T17:55:01.572Z,4.50
2017-10-11T17:57:29.483Z,4.30
2017-10-11T17:59:57.934Z,4.03
2017-10-11T18:02:26.430Z,4.00
2017-10-11T18:04:54.554Z,5.30
2017-10-11T18:07:23.040Z,5.40
2017-10-11T18:09:51.285Z,3.97
2017-10-11T18:12:21.300Z,4.47
2017-10-11T18:14:49.882Z,4.23
2017-10-11T18:17:18.304Z,4.30
2017-10-11T18:19:47.127Z,3.97
2017-10-11T18:22:19.014Z,3.90
2017-10-11T18:24:49.157Z,4.23
2017-10-11T18:27:17.418Z,4.60
2017-10-11T18:29:46.409Z,4.47
2017-10-11T18:32:14.770Z,4.63
2017-10-11T18:34:42.913Z,5.50
2017-10-11T18:37:11.332Z,3.97
2017-10-11T18:39:39.004Z,4.33
2017-10-11T18:42:07.539Z,4.07
2017-10-11T18:44:35.239Z,4.40
2017-10-11T18:47:02.835Z,3.63
2017-10-11T18:49:30.532Z,4.37
2017-10-11T18:51:58.863Z,4.03
2017-10-11T18:54:27.944Z,3.97
2017-10-11T18:56:56.341Z,3.77
2017-10-11T18:59:24.430Z,3.80
2017-10-11T19:01:54.188Z,3.77
2017-10-11T19:04:21.946Z,4.03
2017-10-11T19:06:50.243Z,5.93
2017-10-11T19:09:18.973Z,3.93
2017-10-11T19:11:47.560Z,4.00
2017-10-11T19:14:17.256Z,3.70
2017-10-11T19:16:45.835Z,4.30
2017-10-11T19:19:15.369Z,3.60
2017-10-11T19:21:43.431Z,4.20
2017-10-11T19:24:11.939Z,3.70
2017-10-11T19:26:39.647Z,4.17
2017-10-11T19:29:07.306Z,4.03
2017-10-11T19:31:34.945Z,4.47
2017-10-11T19:34:02.546Z,3.83
2017-10-11T19:36:30.120Z,3.90
2017-10-11T19:38:57.765Z,3.97
2017-10-11T19:41:25.347Z,3.70
2017-10-11T19:43:53.038Z,4.50
2017-10-11T19:46:22.222Z,4.50
2017-10-11T19:48:49.922Z,4.37
2017-10-11T19:51:17.766Z,3.90
2017-10-11T19:53:45.599Z,4.13
2017-10-11T19:56:14.080Z,5.53
2017-10-11T19:58:41.762Z,3.63
2017-10-11T20:01:09.415Z,4.70
2017-10-11T20:03:37.289Z,3.50
2017-10-11T20:06:06.089Z,3.43
2017-10-11T20:08:34.549Z,3.87
2017-10-11T20:11:02.479Z,3.53
2017-10-11T20:13:30.869Z,3.30
2017-10-11T20:15:58.604Z,3.60
2017-10-11T20:18:27.786Z,3.60
2017-10-11T20:20:55.497Z,3.20
2017-10-11T20:23:25.123Z,3.60
2017-10-11T20:25:53.322Z,3.00
2017-10-11T20:28:21.956Z,3.20
2017-10-11T20:30:50.303Z,3.33
2017-10-11T20:33:17.964Z,3.43
2017-10-11T20:35:45.599Z,4.07
2017-10-11T20:38:13.199Z,3.30
2017-10-11T20:40:40.881Z,3.50
2017-10-11T20:43:09.174Z,3.30
2017-10-11T20:45:36.777Z,2.80
2017-10-11T20:48:04.470Z,3.60
2017-10-11T20:50:32.163Z,3.50
2017-10-11T20:53:00.566Z,2.93
2017-10-11T20:55:28.144Z,6.33
2017-10-11T20:57:55.824Z,3.30
2017-10-11T21:00:23.887Z,3.40
2017-10-11T21:02:52.224Z,3.40
2017-10-11T21:05:19.821Z,3.10
2017-10-11T21:07:47.450Z,3.23
2017-10-11T21:10:15.021Z,3.57
2017-10-11T21:12:42.590Z,2.90
2017-10-11T21:15:10.128Z,3.30
2017-10-11T21:17:37.693Z,3.33
2017-10-11T21:20:05.234Z,3.23
2017-10-11T21:22:32.803Z,3.50
2017-10-11T21:25:00.358Z,3.93
2017-10-11T21:27:28.658Z,3.67
2017-10-11T21:29:56.240Z,3.03
2017-10-11T21:32:23.759Z,3.60
2017-10-11T21:34:52.052Z,3.10
2017-10-11T21:37:19.665Z,3.47
2017-10-11T21:39:47.182Z,3.33
2017-10-11T21:42:14.756Z,4.30
2017-10-11T21:44:42.281Z,4.30
2017-10-11T21:47:09.819Z,3.60
2017-10-11T21:49:37.412Z,3.23
2017-10-11T21:52:04.925Z,3.43
2017-10-11T21:54:32.486Z,3.50
2017-10-11T21:57:00.058Z,3.83
2017-10-11T21:59:27.591Z,3.00
2017-10-11T22:01:55.158Z,3.50
2017-10-11T22:04:22.683Z,3.33
2017-10-11T22:06:50.249Z,3.10
2017-10-11T22:09:17.806Z,3.73
2017-10-11T22:11:45.331Z,3.50
2017-10-11T22:14:13.675Z,3.40
2017-10-11T22:16:41.240Z,3.13
2017-10-11T22:19:08.810Z,3.80
2017-10-11T22:21:36.335Z,3.43
2017-10-11T22:24:03.889Z,3.40
2017-10-11T22:26:31.428Z,3.63
2017-10-11T22:28:59.743Z,3.60
2017-10-11T22:31:27.322Z,3.60
2017-10-11T22:33:54.849Z,3.60
2017-10-11T22:36:22.369Z,3.53
2017-10-11T22:38:50.691Z,3.53
2017-10-11T22:41:18.248Z,3.67
2017-10-11T22:43:45.812Z,3.70
2017-10-11T22:46:13.339Z,3.80
2017-10-11T22:48:41.633Z,4.00
2017-10-11T22:51:09.181Z,3.40
2017-10-11T22:53:37.446Z,4.03
2017-10-11T22:56:05.756Z,3.40
2017-10-11T22:58:33.270Z,4.07
2017-10-11T23:01:01.587Z,4.10
2017-10-11T23:03:29.109Z,3.97
2017-10-11T23:05:56.612Z,3.90
2017-10-11T23:08:24.152Z,4.20
2017-10-11T23:10:51.652Z,3.60
2017-10-11T23:13:19.145Z,3.60
2017-10-11T23:15:46.732Z,3.70
2017-10-11T23:18:14.250Z,4.40
2017-10-11T23:20:41.788Z,4.50
2017-10-11T23:23:09.339Z,5.37
2017-10-11T23:25:36.860Z,4.90
2017-10-11T23:28:05.176Z,4.60
2017-10-11T23:30:32.686Z,3.70
2017-10-11T23:33:00.252Z,3.80
2017-10-11T23:35:28.533Z,3.83
2017-10-11T23:37:56.806Z,4.57
2017-10-11T23:40:24.334Z,3.60
2017-10-11T23:42:51.845Z,3.53
2017-10-11T23:45:20.146Z,3.30
2017-10-11T23:47:47.654Z,3.63
2017-10-11T23:50:15.171Z,3.77
2017-10-11T23:52:42.692Z,3.30
2017-10-11T23:55:10.977Z,3.53
2017-10-11T23:57:39.294Z,3.50
